Time;durP1;ratioP1;P1;durP2;ratioP2;P2;SDS_P1;SDS_P2;PMS_P1;PMS_P2;Temp;Humidity;BMP_temperature;BMP_pressure;BME280_temperature;BME280_humidity;BME280_pressure;Samples;Min_cycle;Max_cycle;Signal;HPM_P1;HPM_P2
2023/03/10 00:01:51;;;;;;;13.50;4.03;;;;;;;14.84;57.05;99957.88;5006348;28;20078;-78
2023/03/10 00:04:19;;;;;;;14.07;4.45;;;;;;;14.49;56.83;99916.53;5017545;28;20691;-79
2023/03/10 00:06:50;;;;;;;10.77;3.95;;;;;;;14.66;57.19;99955.53;4998218;28;20594;-82
2023/03/10 00:09:37;;;;;;;16.00;4.10;;;;;;;14.54;57.41;99930.25;5000708;28;20049;-78
2023/03/10 00:12:04;;;;;;;15.95;4.88;;;;;;;14.63;57.39;99958.53;5021664;28;20044;-80
2023/03/10 00:14:31;;;;;;;16.42;4.85;;;;;;;14.68;57.45;99974.84;5000339;28;20084;-79
2023/03/10 00:16:57;;;;;;;11.25;3.30;;;;;;;14.39;57.99;99929.28;5029739;28;20049;-79
2023/03/10 00:19:28;;;;;;;15.25;4.30;;;;;;;14.47;58.49;99950.63;5040949;28;20044;-80
2023/03/10 00:22:01;;;;;;;26.70;4.72;;;;;;;14.55;58.06;99963.94;5034567;28;20052;-80
2023/03/10 00:27:32;;;;;;;14.25;3.65;;;;;;;14.70;58.25;99959.47;5033620;28;20248;-80
2023/03/10 00:30:01;;;;;;;7.22;3.50;;;;;;;14.43;58.70;99930.63;5034602;28;20378;-79
2023/03/10 00:32:30;;;;;;;11.43;3.63;;;;;;;14.58;59.01;99944.88;5027147;28;20055;-80
2023/03/10 00:34:57;;;;;;;13.80;3.47;;;;;;;14.47;58.62;99923.91;5007061;28;20509;-79
2023/03/10 00:37:23;;;;;;;10.02;3.80;;;;;;;14.59;58.78;99933.19;5032262;28;20079;-79
2023/03/10 00:39:54;;;;;;;20.02;10.30;;;;;;;14.84;57.85;99955.19;5035799;28;20479;-77
2023/03/10 00:42:32;;;;;;;16.10;8.10;;;;;;;14.62;58.36;99950.72;5029881;28;20049;-78
2023/03/10 00:45:04;;;;;;;24.75;11.80;;;;;;;14.47;58.14;99962.13;5036474;28;20056;-79
2023/03/10 00:47:34;;;;;;;25.27;11.32;;;;;;;14.10;58.92;99934.34;5036673;28;20055;-79
2023/03/10 00:50:04;;;;;;;19.17;9.85;;;;;;;14.23;58.05;99960.44;5080440;28;20454;-79
2023/03/10 00:52:34;;;;;;;23.75;10.73;;;;;;;13.78;57.04;99895.28;5063612;28;20554;-79
2023/03/10 00:55:00;;;;;;;21.55;10.18;;;;;;;13.97;58.68;99938.56;5057876;28;20048;-80
2023/03/10 00:57:27;;;;;;;27.02;14.05;;;;;;;13.81;59.00;99929.66;5042195;28;20836;-76
2023/03/10 00:59:54;;;;;;;23.92;13.45;;;;;;;13.82;59.20;99952.63;5032959;28;20261;-80
2023/03/10 01:02:25;;;;;;;28.15;11.90;;;;;;;13.70;59.03;99942.53;5032072;28;20567;-79
2023/03/10 01:04:52;;;;;;;19.95;10.68;;;;;;;13.69;59.39;99944.38;5033495;28;20048;-79
2023/03/10 01:07:22;;;;;;;27.65;11.77;;;;;;;13.61;59.46;99939.88;5033094;28;20068;-77
2023/03/10 01:09:57;;;;;;;22.17;10.82;;;;;;;13.12;59.32;99869.84;5035558;28;20045;-80
2023/03/10 01:12:25;;;;;;;17.70;10.25;;;;;;;13.28;59.51;99901.84;5035449;28;20458;-78
2023/03/10 01:14:52;;;;;;;21.38;11.55;;;;;;;13.18;59.26;99887.81;5037132;28;20287;-77
2023/03/10 01:17:21;;;;;;;17.92;10.43;;;;;;;13.38;59.21;99931.78;5035819;28;20137;-79
2023/03/10 01:19:47;;;;;;;18.85;10.80;;;;;;;12.89;59.86;99849.28;5017122;28;20088;-80
2023/03/10 01:22:14;;;;;;;26.45;12.10;;;;;;;13.07;59.48;99874.88;5036389;28;20132;-78
2023/03/10 01:24:40;;;;;;;21.40;12.07;;;;;;;13.15;59.36;99886.31;5028934;28;20151;-79
2023/03/10 01:27:09;;;;;;;50.50;15.32;;;;;;;13.04;59.07;99882.19;5034394;28;20250;-79
2023/03/10 01:29:44;;;;;;;34.97;15.45;;;;;;;13.11;59.07;99889.53;5044834;28;20133;-77
2023/03/10 01:32:15;;;;;;;33.08;15.48;;;;;;;12.99;59.54;99876.56;5042145;28;20126;-78
2023/03/10 01:34:46;;;;;;;24.73;14.73;;;;;;;12.84;59.60;99851.63;5036949;28;20049;-78
2023/03/10 01:37:15;;;;;;;31.98;14.68;;;;;;;12.63;59.77;99827.34;5042502;28;20627;-76
2023/03/10 01:39:42;;;;;;;28.98;13.88;;;;;;;12.92;60.23;99883.56;5041093;28;20049;-78
2023/03/10 01:42:12;;;;;;;27.92;14.23;;;;;;;12.68;60.42;99843.66;5037240;28;20053;-77
2023/03/10 01:45:06;;;;;;;27.88;11.38;;;;;;;12.72;61.08;99850.28;5041754;28;20609;-78
2023/03/10 01:47:43;;;;;;;30.63;14.70;;;;;;;12.80;60.76;99860.94;5035298;28;20051;-79
2023/03/10 01:50:19;;;;;;;22.58;13.23;;;;;;;12.34;61.56;99791.44;5075493;28;20355;-79
2023/03/10 01:52:57;;;;;;;32.25;13.40;;;;;;;12.81;61.38;99852.75;5065766;28;20223;-79
2023/03/10 01:55:36;;;;;;;25.08;12.10;;;;;;;12.75;61.42;99831.31;5053243;28;20117;-79
2023/03/10 01:58:08;;;;;;;30.17;14.07;;;;;;;12.46;60.93;99778.63;5041468;28;20040;-79
2023/03/10 02:00:36;;;;;;;25.88;13.82;;;;;;;12.91;61.48;99846.41;5030359;28;20056;-79
2023/03/10 02:03:31;;;;;;;24.48;13.60;;;;;;;12.90;61.29;99845.59;5046172;28;20045;-78
2023/03/10 02:06:03;;;;;;;26.20;13.45;;;;;;;12.77;61.30;99834.66;5040794;28;20079;-81
2023/03/10 02:08:36;;;;;;;24.70;13.02;;;;;;;12.59;61.87;99819.66;5032876;28;20445;-79
2023/03/10 02:11:04;;;;;;;29.48;14.43;;;;;;;12.53;62.18;99774.28;5044900;28;20048;-79
2023/03/10 02:13:30;;;;;;;23.15;11.85;;;;;;;12.76;62.05;99807.16;5036799;28;20352;-78
2023/03/10 02:15:57;;;;;;;26.80;15.52;;;;;;;12.63;61.70;99790.06;5035734;28;20064;-80
2023/03/10 02:18:24;;;;;;;30.30;16.10;;;;;;;12.60;61.30;99802.72;5032996;28;20056;-79
2023/03/10 02:21:02;;;;;;;31.15;16.13;;;;;;;12.37;62.45;99788.44;5035714;28;20075;-78
2023/03/10 02:24:00;;;;;;;38.50;16.65;;;;;;;12.39;63.00;99815.72;5030928;28;20449;-80
2023/03/10 02:26:40;;;;;;;28.17;17.13;;;;;;;12.28;63.47;99813.38;5032923;28;20359;-78
2023/03/10 02:29:21;;;;;;;36.10;19.40;;;;;;;12.21;63.21;99801.72;5033780;28;20328;-79
2023/03/10 02:32:01;;;;;;;28.05;17.38;;;;;;;12.10;63.81;99806.41;5039755;28;20102;-79
2023/03/10 02:34:28;;;;;;;30.77;18.38;;;;;;;12.03;64.15;99797.41;5035970;28;20049;-78
2023/03/10 02:37:01;;;;;;;34.85;19.98;;;;;;;11.96;64.70;99799.06;5032836;28;20326;-76
2023/03/10 02:39:30;;;;;;;36.20;19.58;;;;;;;11.89;64.31;99779.44;5035058;28;20044;-78
2023/03/10 02:41:57;;;;;;;42.30;20.60;;;;;;;12.08;64.50;99789.75;5052236;28;20047;-79
2023/03/10 02:44:35;;;;;;;25.98;15.57;;;;;;;12.25;64.80;99750.69;5053768;28;20055;-80
2023/03/10 02:47:05;;;;;;;37.60;20.40;;;;;;;12.53;63.40;99793.75;5057047;28;20044;-79
2023/03/10 02:49:34;;;;;;;37.25;22.48;;;;;;;12.07;64.08;99763.34;5071001;28;20040;-80
2023/03/10 02:52:19;;;;;;;38.90;23.85;;;;;;;11.70;64.25;99719.38;5073249;28;20052;-80
2023/03/10 02:54:47;;;;;;;39.35;23.92;;;;;;;12.03;65.00;99805.38;5055996;28;20328;-80
2023/03/10 02:57:17;;;;;;;46.95;25.20;;;;;;;11.51;65.40;99731.19;5033416;28;20072;-80
2023/03/10 02:59:45;;;;;;;43.83;26.57;;;;;;;11.62;66.25;99765.41;5037486;28;20048;-79
2023/03/10 03:02:12;;;;;;;47.95;25.45;;;;;;;11.62;65.78;99776.06;5027923;28;20313;-79
2023/03/10 03:04:41;;;;;;;44.90;25.67;;;;;;;11.53;65.87;99769.91;5038620;28;20064;-81
2023/03/10 03:07:08;;;;;;;50.75;26.13;;;;;;;11.62;66.24;99788.50;5028461;28;20048;-79
2023/03/10 03:09:34;;;;;;;43.72;26.67;;;;;;;11.52;66.39;99786.00;5044656;28;20062;-80
2023/03/10 03:12:01;;;;;;;38.58;23.80;;;;;;;11.42;66.50;99767.53;5038781;28;20517;-79
2023/03/10 03:14:31;;;;;;;41.88;24.85;;;;;;;11.22;66.54;99758.19;5038575;28;20494;-81
2023/03/10 03:17:02;;;;;;;44.35;25.40;;;;;;;11.04;67.11;99731.72;5001007;28;20415;-77
2023/03/10 03:19:35;;;;;;;44.83;26.80;;;;;;;11.15;67.42;99742.06;5006371;28;20088;-78
2023/03/10 03:22:02;;;;;;;57.45;28.08;;;;;;;10.80;67.22;99698.78;5005419;28;20055;-81
2023/03/10 03:24:32;;;;;;;50.65;27.88;;;;;;;11.28;67.45;99778.78;4996700;28;20553;-76
2023/03/10 03:26:59;;;;;;;47.83;27.58;;;;;;;11.25;67.67;99769.31;4998639;28;20057;-77
2023/03/10 03:29:34;;;;;;;50.42;28.38;;;;;;;11.11;67.58;99746.03;5013409;28;20053;-80
2023/03/10 03:32:10;;;;;;;47.72;30.63;;;;;;;11.28;68.33;99774.28;5005571;28;20063;-79
2023/03/10 03:34:37;;;;;;;55.72;29.75;;;;;;;11.22;68.91;99755.53;5015224;28;20421;-80
2023/03/10 03:37:13;;;;;;;47.92;30.05;;;;;;;11.09;69.20;99726.75;4985476;28;20240;-81
2023/03/10 03:39:48;;;;;;;51.95;31.00;;;;;;;11.10;69.53;99736.41;4985875;28;20713;-81
2023/03/10 03:42:15;;;;;;;60.83;35.83;;;;;;;10.98;69.81;99698.66;4988038;28;20179;-79
2023/03/10 03:44:42;;;;;;;65.38;36.20;;;;;;;11.06;70.59;99716.44;5006013;28;20056;-79
2023/03/10 03:47:18;;;;;;;67.95;36.35;;;;;;;11.17;71.34;99725.97;4988880;28;20634;-79
2023/03/10 03:49:56;;;;;;;64.28;37.33;;;;;;;11.05;72.24;99710.31;4990222;28;20041;-80
2023/03/10 03:52:26;;;;;;;61.13;37.15;;;;;;;10.44;71.46;99606.06;4995965;28;20048;-80
2023/03/10 03:54:53;;;;;;;68.30;36.53;;;;;;;10.94;71.90;99681.38;5009336;28;20051;-79
2023/03/10 03:57:25;;;;;;;60.28;35.65;;;;;;;10.80;71.29;99658.09;5002249;28;20099;-79
2023/03/10 03:59:52;;;;;;;65.25;37.10;;;;;;;10.94;72.01;99701.81;5008544;28;20045;-80
2023/03/10 04:02:19;;;;;;;58.67;35.85;;;;;;;10.89;71.87;99689.00;4993414;28;20494;-79
2023/03/10 04:04:46;;;;;;;53.22;32.72;;;;;;;11.01;71.74;99677.09;4991517;28;20688;-81
2023/03/10 04:07:13;;;;;;;50.55;32.72;;;;;;;11.19;71.01;99700.91;5001407;28;20053;-80
2023/03/10 04:09:41;;;;;;;61.17;33.88;;;;;;;11.27;71.18;99727.47;5006305;28;20456;-78
2023/03/10 04:12:09;;;;;;;42.38;28.70;;;;;;;11.19;70.95;99711.53;5000406;28;20063;-79
2023/03/10 04:14:38;;;;;;;52.38;34.40;;;;;;;11.34;70.77;99720.53;5000673;28;20061;-78
2023/03/10 04:17:15;;;;;;;57.50;33.05;;;;;;;11.33;70.66;99710.91;5029090;28;20277;-79
2023/03/10 04:19:44;;;;;;;53.47;32.05;;;;;;;11.04;70.77;99676.75;5030142;28;20075;-79
2023/03/10 04:22:26;;;;;;;48.13;27.43;;;;;;;11.20;70.63;99681.31;5030111;28;20103;-80
2023/03/10 04:24:53;;;;;;;62.25;33.33;;;;;;;11.63;69.99;99702.47;5030134;28;20048;-80
2023/03/10 04:27:20;;;;;;;54.53;31.08;;;;;;;11.58;69.86;99705.63;5048470;28;20093;-80
2023/03/10 04:29:54;;;;;;;40.38;28.92;;;;;;;11.52;70.31;99690.31;5048042;28;20509;-78
2023/03/10 04:32:24;;;;;;;48.00;31.65;;;;;;;11.62;69.54;99674.22;5058207;28;20336;-79
2023/03/10 04:34:51;;;;;;;50.00;30.33;;;;;;;11.12;69.00;99593.63;5046237;28;20070;-79
2023/03/10 04:37:21;;;;;;;48.92;30.30;;;;;;;11.62;68.99;99684.84;5050001;28;20075;-79
2023/03/10 04:39:59;;;;;;;42.05;24.33;;;;;;;11.59;69.64;99672.72;5051622;28;20052;-79
2023/03/10 04:42:26;;;;;;;60.88;32.13;;;;;;;11.51;69.15;99646.97;5029719;28;20041;-80
2023/03/10 04:44:53;;;;;;;48.40;28.35;;;;;;;11.44;69.26;99623.88;5029262;28;20325;-80
2023/03/10 04:47:20;;;;;;;52.50;32.13;;;;;;;11.63;69.36;99650.13;5028274;28;20045;-78
2023/03/10 04:49:48;;;;;;;52.78;31.63;;;;;;;11.49;69.87;99618.88;5036658;28;20044;-79
2023/03/10 04:52:22;;;;;;;52.65;30.67;;;;;;;11.36;69.51;99599.94;5025932;28;20575;-80
2023/03/10 04:54:49;;;;;;;53.88;30.10;;;;;;;11.46;70.05;99619.22;5018977;28;20367;-79
2023/03/10 04:57:16;;;;;;;51.38;29.10;;;;;;;11.41;69.45;99597.59;5051720;28;20109;-79
2023/03/10 04:59:43;;;;;;;49.83;29.35;;;;;;;11.39;70.32;99599.63;5050571;28;20051;-80
2023/03/10 05:02:13;;;;;;;47.67;27.83;;;;;;;10.54;70.31;99462.63;5058278;28;20105;-79
2023/03/10 05:04:42;;;;;;;42.30;26.23;;;;;;;11.48;70.45;99594.16;5056137;28;20071;-78
2023/03/10 05:07:09;;;;;;;44.78;28.80;;;;;;;11.04;69.69;99512.09;5046321;28;20051;-80
2023/03/10 05:09:37;;;;;;;45.13;30.15;;;;;;;11.52;69.81;99605.25;5047199;28;20140;-80
2023/03/10 05:12:09;;;;;;;52.80;30.25;;;;;;;11.42;69.10;99594.81;5031067;28;20041;-79
2023/03/10 05:14:36;;;;;;;46.70;29.00;;;;;;;11.47;69.82;99608.41;5029199;28;20257;-80
2023/03/10 05:17:03;;;;;;;45.22;28.35;;;;;;;11.14;70.07;99567.75;5038265;28;20303;-77
2023/03/10 05:19:37;;;;;;;59.03;31.90;;;;;;;11.37;70.35;99598.97;5036119;28;20497;-79
2023/03/10 05:22:05;;;;;;;57.25;33.67;;;;;;;11.18;71.18;99560.25;5034241;28;20627;-79
2023/03/10 05:24:33;;;;;;;47.67;32.47;;;;;;;11.17;70.89;99553.28;5031010;28;20083;-79
2023/03/10 05:27:02;;;;;;;51.83;34.17;;;;;;;11.20;70.57;99540.50;5025785;28;20045;-79
2023/03/10 05:29:36;;;;;;;51.50;33.20;;;;;;;11.63;70.59;99569.56;5037478;28;20049;-79
2023/03/10 05:32:11;;;;;;;55.00;33.47;;;;;;;11.61;69.98;99567.03;5034110;28;20405;-79
2023/03/10 05:34:40;;;;;;;48.50;32.08;;;;;;;11.58;70.78;99570.06;5039458;28;20048;-77
2023/03/10 05:37:07;;;;;;;50.45;31.98;;;;;;;11.74;70.45;99556.72;5048176;28;20482;-78
2023/03/10 05:39:34;;;;;;;53.30;33.53;;;;;;;11.68;70.54;99544.09;5063870;28;20485;-78
2023/03/10 05:42:02;;;;;;;54.92;33.45;;;;;;;11.15;70.34;99468.44;5042825;28;20041;-78
2023/03/10 05:44:29;;;;;;;56.28;33.92;;;;;;;11.48;70.67;99534.81;5043879;28;20064;-78
2023/03/10 05:46:56;;;;;;;44.22;28.75;;;;;;;11.38;70.63;99534.19;5048404;28;20517;-78
2023/03/10 05:49:25;;;;;;;62.53;35.63;;;;;;;11.43;70.54;99553.97;5074250;28;20044;-77
2023/03/10 05:51:55;;;;;;;;;;;;;;;11.27;71.90;99549.47;5065211;28;20048;-79
2023/03/10 05:54:25;;;;;;;55.17;33.08;;;;;;;11.15;72.02;99537.50;5063844;28;20284;-79
2023/03/10 05:56:58;;;;;;;57.40;33.85;;;;;;;11.26;71.45;99534.53;5048362;28;20044;-78
2023/03/10 05:59:25;;;;;;;37.47;24.50;;;;;;;11.27;71.39;99512.28;5035923;28;20131;-79
2023/03/10 06:01:55;;;;;;;60.45;33.28;;;;;;;11.22;70.93;99488.03;5030994;28;20124;-79
2023/03/10 06:04:31;;;;;;;48.83;30.23;;;;;;;11.56;70.85;99521.53;5039521;28;20074;-80
2023/03/10 06:07:01;;;;;;;56.20;32.53;;;;;;;11.36;70.41;99481.22;5040920;28;20554;-79
2023/03/10 06:09:31;;;;;;;42.22;27.90;;;;;;;11.55;70.73;99503.91;5042277;28;20110;-78
2023/03/10 06:11:59;;;;;;;57.22;32.08;;;;;;;11.14;71.00;99448.22;5044130;28;20053;-78
2023/03/10 06:14:25;;;;;;;45.25;29.77;;;;;;;11.54;71.13;99520.88;5042837;28;20118;-80
2023/03/10 06:16:53;;;;;;;42.25;27.73;;;;;;;11.60;70.91;99514.03;5042478;28;20131;-79
2023/03/10 06:19:24;;;;;;;54.35;32.08;;;;;;;11.52;70.57;99473.19;5042183;28;20199;-79
2023/03/10 06:21:51;;;;;;;42.78;28.00;;;;;;;11.61;70.93;99489.13;5042639;28;20497;-80
2023/03/10 06:24:24;;;;;;;46.05;28.20;;;;;;;11.66;70.79;99500.91;5037996;28;20060;-80
2023/03/10 06:26:50;;;;;;;48.05;28.83;;;;;;;11.40;70.12;99465.75;5054582;28;20220;-79
2023/03/10 06:29:20;;;;;;;46.83;28.77;;;;;;;11.51;70.37;99484.00;5056084;28;20083;-79
2023/03/10 06:31:49;;;;;;;42.72;28.00;;;;;;;11.31;70.93;99460.47;5058865;28;20056;-78
2023/03/10 06:34:19;;;;;;;51.00;30.75;;;;;;;11.43;70.91;99481.34;5063797;28;20412;-79
2023/03/10 06:36:53;;;;;;;49.75;30.98;;;;;;;11.60;71.12;99514.88;5057286;28;20048;-79
2023/03/10 06:39:22;;;;;;;50.42;29.67;;;;;;;11.54;70.69;99473.84;5058215;28;20109;-79
2023/03/10 06:41:53;;;;;;;47.17;30.38;;;;;;;11.42;70.60;99455.78;5029772;28;20131;-79
2023/03/10 06:44:20;;;;;;;43.95;28.83;;;;;;;11.49;70.98;99470.06;5035062;28;20114;-77
2023/03/10 06:46:50;;;;;;;43.58;28.13;;;;;;;11.64;70.51;99481.63;5035189;28;20661;-80
2023/03/10 06:49:17;;;;;;;45.85;28.33;;;;;;;11.99;70.65;99500.84;5066654;28;20120;-79
2023/03/10 06:51:44;;;;;;;48.47;28.38;;;;;;;12.00;70.21;99496.34;5076279;28;20500;-78
2023/03/10 06:54:11;;;;;;;49.55;29.40;;;;;;;11.98;71.11;99488.53;5064697;28;20044;-79
2023/03/10 06:56:49;;;;;;;49.90;29.95;;;;;;;11.92;70.89;99497.22;5043845;28;20052;-77
2023/03/10 06:59:16;;;;;;;45.35;28.30;;;;;;;11.90;71.04;99491.25;5035090;28;20053;-79
2023/03/10 07:01:43;;;;;;;55.65;30.27;;;;;;;11.89;71.55;99482.44;5037680;28;20102;-80
2023/03/10 07:04:13;;;;;;;42.22;29.52;;;;;;;11.81;71.79;99474.44;5050463;28;20056;-80
2023/03/10 07:06:40;;;;;;;47.45;28.95;;;;;;;10.98;72.29;99347.31;5021792;28;20436;-80
2023/03/10 07:09:06;;;;;;;52.70;29.45;;;;;;;11.79;72.21;99478.28;5032258;28;20052;-79
2023/03/10 07:11:33;;;;;;;51.88;30.05;;;;;;;11.72;72.00;99462.16;5046289;28;20601;-80
2023/03/10 07:13:59;;;;;;;45.65;27.25;;;;;;;11.92;72.24;99478.59;5062617;28;20048;-80
2023/03/10 07:16:26;;;;;;;47.38;29.58;;;;;;;11.79;71.78;99431.22;5062926;28;20483;-80
2023/03/10 07:18:56;;;;;;;45.45;28.52;;;;;;;11.87;71.87;99425.06;5061018;28;20139;-79
2023/03/10 07:21:23;;;;;;;44.30;27.50;;;;;;;12.08;71.21;99441.25;5058917;28;20497;-80
2023/03/10 07:23:50;;;;;;;51.63;28.40;;;;;;;11.71;71.94;99370.94;5054617;28;20045;-79
2023/03/10 07:26:20;;;;;;;47.70;27.30;;;;;;;12.45;71.15;99463.69;5037537;28;20075;-78
2023/03/10 07:28:47;;;;;;;48.15;28.55;;;;;;;11.83;71.31;99346.63;5039891;28;20486;-79
2023/03/10 07:31:14;;;;;;;48.30;27.60;;;;;;;12.69;70.83;99467.16;5035910;28;20056;-80
2023/03/10 07:33:45;;;;;;;45.63;26.13;;;;;;;12.40;70.47;99386.19;5033596;28;20045;-79
2023/03/10 07:36:19;;;;;;;42.38;25.58;;;;;;;12.71;70.91;99417.22;5034681;28;20045;-79
2023/03/10 07:38:46;;;;;;;45.22;25.67;;;;;;;13.00;70.94;99457.25;5041043;28;20045;-76
2023/03/10 07:41:18;;;;;;;46.00;24.70;;;;;;;12.35;71.01;99343.31;5036286;28;20265;-78
2023/03/10 07:43:47;;;;;;;;;;;;;;;12.82;70.94;99400.84;5032684;28;20494;-78
2023/03/10 07:46:21;;;;;;;36.67;23.73;;;;;;;13.02;70.10;99417.94;5033430;28;19931;-76
2023/03/10 07:48:51;;;;;;;;;;;;;;;13.26;71.38;99451.53;5062592;28;20433;-79
2023/03/10 07:51:23;;;;;;;35.28;22.90;;;;;;;13.26;70.82;99440.88;5077957;28;19927;-79
2023/03/10 07:53:50;;;;;;;35.40;22.38;;;;;;;13.40;70.64;99441.94;5063042;28;20341;-78
2023/03/10 07:56:20;;;;;;;32.42;24.02;;;;;;;13.31;68.86;99403.03;5049492;28;20061;-80
2023/03/10 07:58:50;;;;;;;35.28;22.52;;;;;;;13.59;69.70;99429.91;5035111;28;20493;-80
2023/03/10 08:01:20;;;;;;;42.72;22.95;;;;;;;13.68;70.01;99431.44;5036270;28;20171;-80
2023/03/10 08:03:48;;;;;;;33.42;23.08;;;;;;;13.76;69.08;99425.19;5053788;28;20109;-79
2023/03/10 08:06:20;;;;;;;24.60;15.55;;;;;;;13.84;70.30;99416.25;5038804;28;20068;-81
2023/03/10 08:08:50;;;;;;;28.05;18.08;;;;;;;13.96;68.69;99421.94;5052613;28;20095;-76
2023/03/10 08:11:18;;;;;;;19.65;14.48;;;;;;;13.96;68.30;99389.94;5048828;28;20052;-76
2023/03/10 08:14:12;;;;;;;21.17;9.13;;;;;;;14.45;66.05;99407.88;5036738;28;20106;-78
2023/03/10 08:16:42;;;;;;;11.32;8.35;;;;;;;14.62;65.05;99403.97;5032999;28;20048;-79
2023/03/10 08:19:12;;;;;;;22.25;13.27;;;;;;;14.64;65.09;99391.25;5049130;28;20052;-78
2023/03/10 08:21:44;;;;;;;24.38;15.73;;;;;;;14.59;66.70;99401.69;5060327;28;20132;-78
2023/03/10 08:24:11;;;;;;;33.00;21.67;;;;;;;14.59;67.07;99393.69;5060052;28;20048;-78
2023/03/10 08:26:41;;;;;;;28.83;20.80;;;;;;;14.69;65.90;99367.47;5045755;28;20447;-78
2023/03/10 08:29:07;;;;;;;35.75;20.17;;;;;;;14.38;67.08;99353.59;5038432;28;20139;-77
2023/03/10 08:31:34;;;;;;;28.08;17.80;;;;;;;14.71;65.47;99394.81;5035630;28;20048;-77
2023/03/10 08:34:08;;;;;;;24.15;16.45;;;;;;;14.39;64.40;99291.97;5006692;28;20064;-78
2023/03/10 08:36:35;;;;;;;39.67;21.27;;;;;;;14.59;67.04;99372.31;5038666;28;20303;-77
2023/03/10 08:39:04;;;;;;;30.27;21.58;;;;;;;14.41;66.28;99305.16;5042364;28;20149;-77
2023/03/10 08:41:35;;;;;;;31.80;19.17;;;;;;;14.43;67.29;99337.81;5042591;28;20117;-79
2023/03/10 08:44:03;;;;;;;31.80;20.13;;;;;;;14.60;66.95;99355.25;5038008;28;20063;-78
2023/03/10 08:46:31;;;;;;;26.45;18.08;;;;;;;14.69;66.95;99367.47;5032133;28;20110;-78
2023/03/10 08:48:58;;;;;;;25.67;17.65;;;;;;;14.69;67.09;99367.47;5061680;28;20062;-79
2023/03/10 08:51:26;;;;;;;18.88;11.02;;;;;;;14.32;65.64;99299.97;5060183;28;20288;-78
2023/03/10 08:54:01;;;;;;;20.02;13.55;;;;;;;14.84;63.96;99371.88;5053965;28;20059;-76
2023/03/10 08:56:34;;;;;;;12.57;6.22;;;;;;;14.85;65.04;99350.31;5051036;28;20210;-76
2023/03/10 08:59:00;;;;;;;23.00;12.13;;;;;;;14.84;63.90;99315.78;5033609;28;20110;-79
2023/03/10 09:01:30;;;;;;;15.18;9.07;;;;;;;15.07;63.39;99343.06;5022929;28;20052;-78
2023/03/10 09:03:58;;;;;;;4.93;2.88;;;;;;;15.22;63.60;99350.13;5016253;28;20094;-78
2023/03/10 09:06:30;;;;;;;17.85;10.27;;;;;;;15.24;64.79;99364.13;5031282;28;20182;-78
2023/03/10 09:09:04;;;;;;;17.58;12.18;;;;;;;15.42;62.52;99377.00;5033222;28;20136;-78
2023/03/10 09:11:37;;;;;;;20.58;15.40;;;;;;;15.05;65.95;99338.91;5030584;28;20061;-77
2023/03/10 09:14:05;;;;;;;24.67;14.45;;;;;;;14.83;63.40;99290.06;5025579;28;20053;-79
2023/03/10 09:16:32;;;;;;;23.65;13.55;;;;;;;15.12;63.79;99353.16;4986077;28;20053;-78
2023/03/10 09:19:05;;;;;;;35.60;25.50;;;;;;;15.03;68.79;99357.03;5007694;28;20040;-78
2023/03/10 09:21:41;;;;;;;29.98;18.13;;;;;;;14.98;67.05;99341.56;5012933;28;20041;-77
2023/03/10 09:24:12;;;;;;;29.90;17.20;;;;;;;14.42;66.92;99232.88;5026926;28;20053;-79
2023/03/10 09:26:50;;;;;;;35.72;22.30;;;;;;;15.20;68.36;99336.16;5014325;28;20052;-77
2023/03/10 09:29:23;;;;;;;24.20;16.05;;;;;;;15.03;65.53;99287.53;5011713;28;20044;-79
2023/03/10 09:32:08;;;;;;;47.45;23.67;;;;;;;15.28;68.25;99306.56;4981096;28;20052;-77
2023/03/10 09:34:35;;;;;;;22.88;15.57;;;;;;;15.41;65.95;99301.28;4999684;28;20048;-79
2023/03/10 09:37:12;;;;;;;27.40;16.10;;;;;;;15.78;65.01;99333.97;5015183;28;20899;-78
2023/03/10 09:39:48;;;;;;;21.63;14.32;;;;;;;16.06;63.77;99330.31;4999965;28;20056;-78
2023/03/10 09:42:38;;;;;;;41.80;21.23;;;;;;;16.10;64.93;99304.81;4985497;28;20181;-79
2023/03/10 09:45:42;;;;;;;20.42;15.63;;;;;;;16.55;61.87;99323.78;4991783;28;20110;-78
2023/03/10 09:48:21;;;;;;;24.52;17.45;;;;;;;16.68;62.25;99326.47;5008357;28;20040;-80
2023/03/10 09:50:55;;;;;;;26.70;15.48;;;;;;;16.69;61.61;99319.25;5037297;28;20044;-76
2023/03/10 09:53:24;;;;;;;22.95;14.07;;;;;;;16.90;60.39;99324.41;5027195;28;20048;-80
2023/03/10 09:55:52;;;;;;;26.35;17.98;;;;;;;16.75;60.01;99260.28;5036706;28;20130;-79
2023/03/10 09:58:29;;;;;;;25.83;13.90;;;;;;;16.77;58.63;99268.94;5007514;28;20136;-79
2023/03/10 10:00:58;;;;;;;23.73;15.43;;;;;;;17.02;59.24;99308.50;5007318;28;20083;-79
2023/03/10 10:03:41;;;;;;;23.75;13.35;;;;;;;17.43;56.05;99302.00;5016078;28;20053;-79
2023/03/10 10:06:31;;;;;;;16.50;9.98;;;;;;;17.36;55.74;99298.50;5017529;28;20505;-78
2023/03/10 10:09:09;;;;;;;12.13;7.53;;;;;;;16.29;54.32;99105.00;4978228;28;20353;-77
2023/03/10 10:11:41;;;;;;;23.90;14.73;;;;;;;17.52;56.09;99289.94;5009778;28;20387;-78
2023/03/10 10:14:18;;;;;;;16.83;11.23;;;;;;;17.15;56.09;99237.94;5012024;28;20127;-79
2023/03/10 10:17:31;;;;;;;21.65;13.35;;;;;;;17.48;57.27;99296.81;5052924;28;20059;-79
2023/03/10 10:20:32;;;;;;;28.08;17.27;;;;;;;17.23;58.15;99235.84;5032102;28;20052;-79
2023/03/10 10:23:05;;;;;;;20.95;13.10;;;;;;;17.63;57.34;99289.28;5032642;28;20075;-78
2023/03/10 10:25:36;;;;;;;19.63;14.07;;;;;;;17.76;56.04;99285.69;5040599;28;20044;-76
2023/03/10 10:28:03;;;;;;;27.73;14.48;;;;;;;17.52;56.15;99234.47;5042847;28;20109;-79
2023/03/10 10:30:40;;;;;;;25.10;13.60;;;;;;;17.68;56.55;99276.06;5053975;28;20078;-77
2023/03/10 10:33:13;;;;;;;19.98;13.27;;;;;;;17.95;56.28;99300.09;5054396;28;20040;-79
2023/03/10 10:36:04;;;;;;;21.33;11.88;;;;;;;17.53;55.76;99224.53;5049678;28;20477;-80
2023/03/10 10:38:31;;;;;;;18.60;11.77;;;;;;;17.55;55.78;99237.72;5054343;28;20080;-80
2023/03/10 10:41:06;;;;;;;22.42;13.80;;;;;;;17.85;56.82;99286.31;5038414;28;20048;-79
2023/03/10 10:43:42;;;;;;;27.88;13.57;;;;;;;17.78;57.00;99275.56;5033373;28;20053;-78
2023/03/10 10:46:15;;;;;;;30.70;14.90;;;;;;;17.54;57.84;99258.38;5034806;28;20090;-78
2023/03/10 10:48:44;;;;;;;32.67;18.48;;;;;;;17.76;59.39;99287.56;5058942;28;20401;-78
2023/03/10 10:51:27;;;;;;;35.78;17.45;;;;;;;17.49;58.77;99221.44;5076500;28;20054;-78
2023/03/10 10:53:56;;;;;;;26.02;14.85;;;;;;;17.84;58.15;99247.06;5065792;28;20062;-78
2023/03/10 10:56:29;;;;;;;22.45;13.88;;;;;;;17.96;58.06;99277.56;5045524;28;20114;-79
2023/03/10 10:59:40;;;;;;;19.90;12.10;;;;;;;17.35;58.21;99168.91;5033434;28;20053;-79
2023/03/10 11:02:29;;;;;;;20.42;11.43;;;;;;;17.90;56.62;99283.81;5029905;28;20303;-77
2023/03/10 11:05:15;;;;;;;18.25;11.68;;;;;;;17.67;56.74;99242.22;5026374;28;20049;-79
2023/03/10 11:07:43;;;;;;;29.38;14.40;;;;;;;17.69;57.27;99272.34;5034684;28;20147;-77
2023/03/10 11:10:20;;;;;;;25.48;13.18;;;;;;;17.38;56.61;99221.31;5039707;28;20051;-77
2023/03/10 11:13:05;;;;;;;23.33;15.00;;;;;;;17.61;56.95;99286.00;5042114;28;20045;-80
2023/03/10 11:15:41;;;;;;;20.05;12.68;;;;;;;17.70;55.99;99260.56;5043419;28;20745;-76
2023/03/10 11:18:26;;;;;;;27.92;15.25;;;;;;;17.63;56.65;99269.69;5043110;28;20050;-79
2023/03/10 11:21:13;;;;;;;24.52;11.43;;;;;;;17.18;56.66;99216.03;5057086;28;20047;-78
2023/03/10 11:24:06;;;;;;;23.80;14.02;;;;;;;17.68;56.89;99275.22;5056143;28;20551;-78
2023/03/10 11:26:48;;;;;;;24.25;10.10;;;;;;;17.92;55.92;99271.00;5046336;28;20142;-79
2023/03/10 11:29:41;;;;;;;20.58;11.27;;;;;;;18.05;54.50;99276.25;5060237;28;20132;-78
2023/03/10 11:32:19;;;;;;;7.68;5.65;;;;;;;17.92;53.27;99239.59;5018752;28;20106;-79
2023/03/10 11:34:57;;;;;;;10.82;6.88;;;;;;;18.49;51.69;99282.53;5041704;28;20562;-79
2023/03/10 11:37:42;;;;;;;14.45;8.85;;;;;;;18.42;52.28;99260.25;5038323;28;20048;-79
2023/03/10 11:40:31;;;;;;;20.38;10.10;;;;;;;18.46;52.40;99285.66;5046394;28;20174;-80
2023/03/10 11:43:26;;;;;;;22.83;11.75;;;;;;;18.25;53.77;99275.28;5044313;28;20453;-79
2023/03/10 11:46:31;;;;;;;18.13;9.57;;;;;;;18.13;53.77;99246.47;5018459;28;20048;-79